Phoenixville, Pennsylvania
Current Conditions -  °F | °C
As of 4:54 AM on Thursday 23 Oct 2014 (Local Time) from KPTW Reporting Station
Overcast Overcast  
Wind Chill: 51°   Ceiling: 3700
Heat Index: 51°   Visibility: 10mi
Dew Point: 43°   Wind: 15mph
Humidity: 74%   Direction: 340°NNW
Pressure: 29.8"   Gusts: 25mph
Location:  40.13°N, 75.51°W
Report Text: KPTW 230854Z AUTO 34013G22KT 10SM BKN037 OVC090 11/06 A2980 RMK AO2 SLP089 T01060061 55001
Loading
Personal Weather Stations






























Interactive Weather Map
Tropical Storm Tracking
New forecast layout! Learn more

10-Day Weather Forecast

Advertisements
Track Severe Weather on mobile